Time;durP1;ratioP1;P1;durP2;ratioP2;P2;SDS_P1;SDS_P2;PMS_P1;PMS_P2;Temp;Humidity;BMP_temperature;BMP_pressure;BME280_temperature;BME280_humidity;BME280_pressure;Samples;Min_cycle;Max_cycle;Signal;HPM_P1;HPM_P2
2023/06/19 00:00:12;;;;;;;7.15;6.00;;;;;;;22.27;100.00;100755.16;5264872;28;20031;-72
2023/06/19 00:02:44;;;;;;;7.55;5.88;;;;;;;22.32;100.00;100757.22;5266381;28;20039;-73
2023/06/19 00:05:15;;;;;;;8.23;5.88;;;;;;;22.22;100.00;100760.41;5263054;28;20067;-73
2023/06/19 00:07:46;;;;;;;6.93;6.30;;;;;;;22.21;100.00;100758.75;5264980;28;20563;-74
2023/06/19 00:10:18;;;;;;;9.35;6.55;;;;;;;22.13;100.00;100760.91;5265369;28;20028;-73
2023/06/19 00:12:49;;;;;;;7.07;6.38;;;;;;;22.13;100.00;100767.16;5271832;28;20042;-73
2023/06/19 00:15:21;;;;;;;8.82;6.20;;;;;;;22.05;100.00;100767.44;5271823;28;20032;-74
2023/06/19 00:17:52;;;;;;;8.55;6.60;;;;;;;21.98;100.00;100772.06;5276248;28;20059;-74
2023/06/19 00:20:24;;;;;;;6.90;6.28;;;;;;;21.87;100.00;100779.88;5275337;28;20505;-75
2023/06/19 00:22:55;;;;;;;6.78;6.03;;;;;;;21.92;100.00;100781.94;5270923;28;20027;-74
2023/06/19 00:25:26;;;;;;;7.15;6.45;;;;;;;21.78;100.00;100783.91;5267348;28;20145;-73
2023/06/19 00:27:58;;;;;;;11.50;6.60;;;;;;;21.78;100.00;100785.78;5271250;28;20829;-74
2023/06/19 00:30:32;;;;;;;8.13;6.82;;;;;;;21.73;100.00;100791.88;5266350;28;20032;-74
2023/06/19 00:33:05;;;;;;;12.07;6.28;;;;;;;21.65;100.00;100795.69;5268521;28;20034;-73
2023/06/19 00:35:36;;;;;;;8.32;6.95;;;;;;;21.52;100.00;100799.28;5264256;28;20028;-71
2023/06/19 00:38:08;;;;;;;7.35;6.20;;;;;;;21.52;100.00;100801.97;5265320;28;20039;-71
2023/06/19 00:40:39;;;;;;;10.30;7.53;;;;;;;21.52;100.00;100801.16;5275023;28;20028;-71
2023/06/19 00:43:10;;;;;;;8.15;6.28;;;;;;;21.40;100.00;100811.81;5265159;28;20042;-72
2023/06/19 00:45:42;;;;;;;8.15;6.53;;;;;;;21.42;100.00;100819.75;5268999;28;20035;-70
2023/06/19 00:48:13;;;;;;;8.05;5.97;;;;;;;21.34;100.00;100813.50;5268205;28;20490;-70
2023/06/19 00:50:44;;;;;;;7.32;6.32;;;;;;;21.26;100.00;100818.34;5271651;28;20560;-72
2023/06/19 00:53:17;;;;;;;8.30;5.68;;;;;;;21.27;100.00;100822.72;5263205;28;20024;-72
2023/06/19 00:55:51;;;;;;;6.78;6.07;;;;;;;21.26;100.00;100824.59;5265835;28;20056;-71
2023/06/19 00:58:23;;;;;;;6.82;6.13;;;;;;;21.23;100.00;100826.91;5267470;28;20063;-72
2023/06/19 01:00:54;;;;;;;7.18;6.47;;;;;;;21.23;100.00;100830.47;5268566;28;20020;-73
2023/06/19 01:03:26;;;;;;;6.78;6.07;;;;;;;21.14;100.00;100834.44;5267678;28;20141;-74
2023/06/19 01:06:00;;;;;;;9.23;6.60;;;;;;;21.08;100.00;100838.00;5276940;28;20452;-68
2023/06/19 01:08:55;;;;;;;6.38;5.78;;;;;;;21.10;100.00;100838.63;5269527;28;20028;-69
2023/06/19 01:11:33;;;;;;;6.95;5.82;;;;;;;21.06;100.00;100831.97;5266360;28;20103;-68
2023/06/19 01:14:12;;;;;;;8.07;5.63;;;;;;;21.00;100.00;100838.22;5263601;28;20445;-69
2023/06/19 01:16:44;;;;;;;7.55;5.93;;;;;;;20.98;100.00;100845.75;5275161;28;20024;-69
2023/06/19 01:19:20;;;;;;;5.85;5.25;;;;;;;20.96;100.00;100843.22;5266944;28;20353;-67
2023/06/19 01:21:51;;;;;;;5.93;4.88;;;;;;;20.96;100.00;100835.94;5272135;28;20323;-69
2023/06/19 01:24:22;;;;;;;5.28;4.78;;;;;;;20.85;100.00;100842.00;5267811;28;20062;-69
2023/06/19 01:26:54;;;;;;;5.75;5.13;;;;;;;20.81;100.00;100832.63;5275942;28;20039;-70
2023/06/19 01:29:25;;;;;;;6.57;5.32;;;;;;;20.83;100.00;100837.81;5276833;28;20059;-69
2023/06/19 01:32:06;;;;;;;5.55;5.05;;;;;;;20.79;100.00;100837.41;5276225;28;20443;-69
2023/06/19 01:34:38;;;;;;;5.18;4.68;;;;;;;20.72;100.00;100842.00;5275552;28;20453;-69
2023/06/19 01:37:11;;;;;;;7.43;4.60;;;;;;;20.69;100.00;100843.28;5270298;28;20033;-68
2023/06/19 01:39:44;;;;;;;5.55;5.00;;;;;;;20.68;100.00;100841.59;5268305;28;20054;-69
2023/06/19 01:42:16;;;;;;;4.95;4.45;;;;;;;20.60;100.00;100847.22;5267526;28;20450;-70
2023/06/19 01:44:49;;;;;;;5.47;4.93;;;;;;;20.63;100.00;100843.28;5270368;28;20572;-70
2023/06/19 01:47:21;;;;;;;5.15;4.38;;;;;;;20.56;100.00;100851.34;5268410;28;20772;-69
2023/06/19 01:49:52;;;;;;;5.72;4.78;;;;;;;20.55;100.00;100853.25;5270721;28;20090;-68
2023/06/19 01:52:24;;;;;;;5.28;4.15;;;;;;;20.53;100.00;100846.34;5268460;28;20028;-69
2023/06/19 01:54:56;;;;;;;5.80;3.92;;;;;;;20.47;100.00;100864.28;5276830;28;20028;-68
2023/06/19 01:57:27;;;;;;;4.82;3.80;;;;;;;20.42;100.00;100857.81;5271121;28;20024;-69
2023/06/19 01:59:58;;;;;;;4.28;3.88;;;;;;;20.33;100.00;100862.59;5271736;28;20039;-68
2023/06/19 02:02:30;;;;;;;6.95;4.47;;;;;;;20.30;100.00;100857.59;5270235;28;20036;-69
2023/06/19 02:05:01;;;;;;;7.07;4.68;;;;;;;20.28;100.00;100871.34;5265620;28;20044;-68
2023/06/19 02:07:32;;;;;;;3.97;3.55;;;;;;;20.29;100.00;100864.06;5273761;28;20036;-70
2023/06/19 02:10:05;;;;;;;5.18;3.95;;;;;;;20.22;100.00;100869.47;5267833;28;20155;-70
2023/06/19 02:12:36;;;;;;;4.70;3.45;;;;;;;20.17;100.00;100882.78;5273330;28;20055;-69
2023/06/19 02:15:08;;;;;;;4.63;3.42;;;;;;;20.18;100.00;100874.47;5274893;28;20028;-69
2023/06/19 02:17:42;;;;;;;4.65;3.70;;;;;;;20.14;100.00;100877.75;5272255;28;20046;-69
2023/06/19 02:20:13;;;;;;;3.65;3.13;;;;;;;20.09;100.00;100872.13;5273413;28;20028;-67
2023/06/19 02:22:44;;;;;;;3.65;2.97;;;;;;;20.05;100.00;100870.88;5267684;28;20472;-67
2023/06/19 02:25:16;;;;;;;4.00;3.30;;;;;;;20.06;100.00;100872.56;5264475;28;20031;-69
2023/06/19 02:27:47;;;;;;;4.90;3.00;;;;;;;19.99;100.00;100877.94;5271928;28;20075;-68
2023/06/19 02:30:18;;;;;;;3.42;2.70;;;;;;;19.92;100.00;100867.09;5274144;28;20458;-68
2023/06/19 02:32:50;;;;;;;3.75;2.95;;;;;;;19.95;100.00;100873.97;5269055;28;20417;-68
2023/06/19 02:35:21;;;;;;;4.32;2.67;;;;;;;19.87;100.00;100877.69;5274085;28;20039;-69
2023/06/19 02:37:52;;;;;;;3.38;2.70;;;;;;;19.83;100.00;100876.44;5276469;28;21263;-69
2023/06/19 02:40:24;;;;;;;2.97;2.67;;;;;;;19.85;100.00;100878.94;5278970;28;20025;-68
2023/06/19 02:42:55;;;;;;;4.75;2.67;;;;;;;19.81;100.00;100882.06;5271967;28;20047;-69
2023/06/19 02:45:26;;;;;;;6.78;2.40;;;;;;;19.79;100.00;100884.13;5269346;28;20111;-67
2023/06/19 02:47:58;;;;;;;2.90;2.40;;;;;;;19.81;100.00;100881.19;5268228;28;20132;-68
2023/06/19 02:50:29;;;;;;;3.30;2.67;;;;;;;19.68;100.00;100881.97;5269255;28;20042;-68
2023/06/19 02:53:00;;;;;;;3.28;2.90;;;;;;;19.70;100.00;100885.28;5271265;28;20082;-69
2023/06/19 02:55:32;;;;;;;3.38;2.80;;;;;;;19.61;100.00;100879.22;5269312;28;20404;-68
2023/06/19 02:58:03;;;;;;;5.15;2.58;;;;;;;19.64;100.00;100886.94;5270710;28;20052;-68
2023/06/19 03:00:34;;;;;;;3.88;2.65;;;;;;;19.59;100.00;100894.81;5268067;28;20501;-69
2023/06/19 03:03:05;;;;;;;4.15;2.78;;;;;;;19.60;100.00;100890.22;5272169;28;20505;-68
2023/06/19 03:05:37;;;;;;;6.03;2.50;;;;;;;19.63;100.00;100896.09;5270355;28;20036;-68
2023/06/19 03:08:08;;;;;;;3.45;2.80;;;;;;;19.54;100.00;100891.88;5272051;28;20368;-69
2023/06/19 03:10:39;;;;;;;3.92;2.72;;;;;;;19.49;100.00;100897.06;5266386;28;20635;-69
2023/06/19 03:13:11;;;;;;;3.33;2.75;;;;;;;19.48;100.00;100903.53;5276603;28;20032;-69
2023/06/19 03:15:42;;;;;;;3.45;2.67;;;;;;;19.48;100.00;100902.66;5272826;28;20468;-69
2023/06/19 03:18:13;;;;;;;4.50;2.45;;;;;;;19.44;100.00;100903.09;5264728;28;20024;-69
2023/06/19 03:20:45;;;;;;;3.63;2.85;;;;;;;19.37;100.00;100913.03;5272282;28;20020;-68
2023/06/19 03:23:16;;;;;;;2.97;2.78;;;;;;;19.42;100.00;100909.72;5275188;28;20558;-67
2023/06/19 03:25:47;;;;;;;3.55;3.00;;;;;;;19.36;100.00;100911.34;5266452;28;20382;-68
2023/06/19 03:28:18;;;;;;;4.10;3.28;;;;;;;19.34;100.00;100918.81;5265898;28;20028;-67
2023/06/19 03:30:50;;;;;;;4.47;3.47;;;;;;;19.38;100.00;100919.25;5267965;28;20160;-69
2023/06/19 03:33:21;;;;;;;5.90;3.38;;;;;;;19.31;100.00;100905.69;5272771;28;20032;-69
2023/06/19 03:35:52;;;;;;;3.80;3.03;;;;;;;19.32;100.00;100915.50;5269573;28;20552;-69
2023/06/19 03:38:24;;;;;;;3.60;3.30;;;;;;;19.33;100.00;100910.91;5264181;28;20040;-69
2023/06/19 03:40:55;;;;;;;4.32;3.50;;;;;;;19.22;100.00;100917.72;5265501;28;20067;-68
2023/06/19 03:43:26;;;;;;;4.38;3.40;;;;;;;19.31;100.00;100924.63;5264699;28;20093;-69
2023/06/19 03:45:57;;;;;;;4.72;3.53;;;;;;;19.27;100.00;100934.19;5270960;28;20461;-68
2023/06/19 03:48:29;;;;;;;5.20;3.63;;;;;;;19.29;100.00;100937.50;5262917;28;20123;-69
2023/06/19 03:51:00;;;;;;;4.60;3.38;;;;;;;19.32;100.00;100939.84;5280348;28;20507;-69
2023/06/19 03:53:32;;;;;;;5.68;3.70;;;;;;;19.27;100.00;100940.41;5276402;28;20449;-69
2023/06/19 03:56:03;;;;;;;5.97;3.53;;;;;;;19.32;100.00;100953.34;5269746;28;20097;-69
2023/06/19 03:58:34;;;;;;;5.47;3.70;;;;;;;19.36;100.00;100949.22;5269965;28;20032;-68
2023/06/19 04:01:06;;;;;;;4.32;3.40;;;;;;;19.39;100.00;100958.78;5268978;28;20590;-68
2023/06/19 04:03:37;;;;;;;3.85;3.45;;;;;;;19.38;100.00;100955.25;5269601;28;20028;-66
2023/06/19 04:06:08;;;;;;;9.52;3.80;;;;;;;19.41;100.00;100960.28;5263876;28;20025;-65
2023/06/19 04:08:40;;;;;;;5.40;3.60;;;;;;;19.45;100.00;100966.94;5267006;28;20024;-67
2023/06/19 04:11:11;;;;;;;5.75;4.10;;;;;;;19.44;100.00;100969.84;5267669;28;20059;-66
2023/06/19 04:13:42;;;;;;;5.85;3.72;;;;;;;19.51;100.00;100965.31;5278409;28;20055;-67
2023/06/19 04:16:14;;;;;;;5.15;3.60;;;;;;;19.58;100.00;100976.19;5261316;28;20033;-67
2023/06/19 04:18:45;;;;;;;5.68;4.32;;;;;;;19.54;100.00;100974.91;5269735;28;20467;-67
2023/06/19 04:21:16;;;;;;;6.05;3.70;;;;;;;19.58;100.00;100987.00;5269576;28;20576;-67
2023/06/19 04:23:47;;;;;;;5.95;3.42;;;;;;;19.69;100.00;100981.06;5267345;28;20021;-67
2023/06/19 04:26:21;;;;;;;7.60;4.18;;;;;;;19.74;100.00;100978.63;5270226;28;20146;-67
2023/06/19 04:28:52;;;;;;;6.15;3.85;;;;;;;19.77;100.00;100983.59;5274232;28;20027;-66
2023/06/19 04:31:26;;;;;;;12.48;9.10;;;;;;;19.81;100.00;100984.03;5264111;28;20557;-67
2023/06/19 04:33:57;;;;;;;7.10;4.20;;;;;;;19.78;100.00;100995.28;5260901;28;20024;-67
2023/06/19 04:36:31;;;;;;;4.88;4.35;;;;;;;19.75;100.00;100999.22;5263345;28;20032;-68
2023/06/19 04:39:02;;;;;;;5.80;3.67;;;;;;;19.67;100.00;100999.34;5268140;28;20025;-67
2023/06/19 04:41:34;;;;;;;6.43;4.55;;;;;;;19.68;100.00;101001.00;5272233;28;20353;-67
2023/06/19 04:44:06;;;;;;;6.28;4.30;;;;;;;19.75;100.00;101001.09;5271384;28;20570;-67
2023/06/19 04:46:38;;;;;;;8.50;4.10;;;;;;;19.73;100.00;101009.38;5264297;28;20029;-67
2023/06/19 04:49:09;;;;;;;5.15;4.05;;;;;;;19.79;100.00;101011.34;5266886;28;20045;-66
2023/06/19 04:51:41;;;;;;;4.32;3.92;;;;;;;19.78;100.00;101017.75;5279048;28;20059;-67
2023/06/19 04:54:12;;;;;;;7.18;3.92;;;;;;;19.76;100.00;101003.59;5272309;28;20036;-67
2023/06/19 04:56:44;;;;;;;5.47;4.10;;;;;;;19.78;100.00;101006.94;5273864;28;20059;-67
2023/06/19 04:59:17;;;;;;;8.48;4.30;;;;;;;19.83;100.00;101003.66;5268626;28;20048;-67
2023/06/19 05:01:49;;;;;;;6.25;4.50;;;;;;;19.81;100.00;101011.97;5271164;28;20167;-67
2023/06/19 05:04:22;;;;;;;5.95;4.00;;;;;;;19.96;100.00;101011.81;5271452;28;20032;-66
2023/06/19 05:06:53;;;;;;;5.53;4.07;;;;;;;19.95;100.00;101012.88;5270010;28;20489;-67
2023/06/19 05:09:24;;;;;;;6.70;3.92;;;;;;;20.06;100.00;101013.34;5271759;28;20040;-67
2023/06/19 05:11:57;;;;;;;6.82;4.32;;;;;;;19.96;100.00;101011.00;5278745;28;20036;-67
2023/06/19 05:14:28;;;;;;;5.95;4.28;;;;;;;20.05;100.00;101023.31;5269215;28;20078;-67
2023/06/19 05:16:59;;;;;;;4.78;4.05;;;;;;;20.09;100.00;101012.91;5267548;28;20437;-67
2023/06/19 05:19:31;;;;;;;6.60;4.47;;;;;;;20.07;100.00;101026.66;5274520;28;20402;-67
2023/06/19 05:22:02;;;;;;;5.30;4.60;;;;;;;20.13;100.00;101031.28;5282461;28;20020;-67
2023/06/19 05:24:33;;;;;;;6.82;4.88;;;;;;;20.06;100.00;101027.72;5267197;28;20115;-67
2023/06/19 05:27:05;;;;;;;7.18;4.55;;;;;;;20.16;100.00;101024.63;5266736;28;20031;-66
2023/06/19 05:29:36;;;;;;;6.65;5.05;;;;;;;20.12;100.00;101042.31;5273784;28;20037;-66
2023/06/19 05:32:08;;;;;;;6.75;5.55;;;;;;;20.13;100.00;101039.41;5262003;28;20024;-67
2023/06/19 05:34:39;;;;;;;6.22;5.20;;;;;;;20.17;100.00;101045.25;5262500;28;20265;-67
2023/06/19 05:37:10;;;;;;;7.40;4.88;;;;;;;20.15;100.00;101042.75;5265328;28;20117;-67
2023/06/19 05:39:41;;;;;;;8.07;4.80;;;;;;;20.15;100.00;101033.78;5265534;28;20567;-67
2023/06/19 05:42:13;;;;;;;8.02;4.93;;;;;;;20.24;100.00;101038.00;5268552;28;20580;-67
2023/06/19 05:44:44;;;;;;;9.13;5.18;;;;;;;20.18;100.00;101042.34;5267608;28;20557;-67
2023/06/19 05:47:16;;;;;;;6.65;4.88;;;;;;;20.30;100.00;101049.88;5264761;28;21201;-67
2023/06/19 05:49:48;;;;;;;5.40;4.53;;;;;;;20.37;100.00;101042.63;5271807;28;20033;-66
2023/06/19 05:52:20;;;;;;;5.75;5.20;;;;;;;20.45;100.00;101041.63;5271722;28;20638;-67
2023/06/19 05:54:53;;;;;;;7.45;5.28;;;;;;;20.48;100.00;101043.94;5276587;28;20031;-67
2023/06/19 05:57:24;;;;;;;5.30;4.80;;;;;;;20.57;100.00;101040.00;5276089;28;20127;-66
2023/06/19 05:59:56;;;;;;;7.35;5.35;;;;;;;20.65;100.00;101042.56;5273026;28;20032;-66
2023/06/19 06:02:28;;;;;;;6.07;5.43;;;;;;;20.81;100.00;101041.34;5274358;28;20354;-72
2023/06/19 06:04:59;;;;;;;6.95;5.50;;;;;;;20.81;100.00;101045.91;5269010;28;20069;-73
2023/06/19 06:07:30;;;;;;;5.72;4.90;;;;;;;20.86;100.00;101056.97;5271724;28;20028;-79
2023/06/19 06:10:02;;;;;;;6.95;5.55;;;;;;;20.93;100.00;101052.41;5274037;28;20437;-79
2023/06/19 06:12:34;;;;;;;7.47;5.32;;;;;;;21.00;100.00;101064.09;5271981;28;20407;-80
2023/06/19 06:15:06;;;;;;;6.93;5.68;;;;;;;21.06;100.00;101067.88;5277783;28;20024;-80
2023/06/19 06:17:37;;;;;;;7.03;5.68;;;;;;;21.20;100.00;101071.44;5268527;28;20032;-79
2023/06/19 06:20:11;;;;;;;6.25;5.40;;;;;;;21.24;100.00;101080.81;5270329;28;20113;-80
2023/06/19 06:22:42;;;;;;;5.63;5.13;;;;;;;21.26;100.00;101081.44;5273451;28;20148;-80
2023/06/19 06:25:14;;;;;;;6.03;5.43;;;;;;;21.40;100.00;101085.00;5275046;28;20518;-81
2023/06/19 06:27:45;;;;;;;6.03;5.53;;;;;;;21.61;100.00;101089.44;5276726;28;20059;-80
2023/06/19 06:30:17;;;;;;;7.30;6.22;;;;;;;21.61;100.00;101076.69;5277270;28;20568;-79
2023/06/19 06:32:48;;;;;;;7.38;6.15;;;;;;;21.88;100.00;101085.66;5273199;28;20580;-79
2023/06/19 06:35:19;;;;;;;7.43;6.20;;;;;;;22.06;100.00;101092.28;5276753;28;20032;-76
2023/06/19 06:37:50;;;;;;;9.07;5.88;;;;;;;22.36;100.00;101100.78;5265404;28;20051;-77
2023/06/19 06:40:22;;;;;;;7.47;6.50;;;;;;;22.62;100.00;101105.28;5271315;28;21294;-77
2023/06/19 06:42:53;;;;;;;7.55;6.90;;;;;;;22.52;100.00;101110.34;5264183;28;20030;-77
2023/06/19 06:45:25;;;;;;;7.60;6.75;;;;;;;22.57;100.00;101113.25;5269633;28;20025;-77
2023/06/19 06:47:56;;;;;;;9.05;7.22;;;;;;;22.75;100.00;101114.44;5271927;28;20517;-77
2023/06/19 06:50:27;;;;;;;10.07;6.93;;;;;;;22.91;100.00;101121.25;5272182;28;20456;-78
2023/06/19 06:53:00;;;;;;;10.23;7.25;;;;;;;22.89;100.00;101126.91;5261260;28;20635;-78
2023/06/19 06:55:31;;;;;;;7.57;6.88;;;;;;;23.11;100.00;101123.91;5268435;28;20445;-77
2023/06/19 06:58:02;;;;;;;7.80;7.10;;;;;;;23.12;100.00;101120.94;5265322;28;20088;-79
2023/06/19 07:00:34;;;;;;;9.77;7.45;;;;;;;23.01;100.00;101124.34;5266806;28;20440;-77
2023/06/19 07:03:06;;;;;;;9.00;7.00;;;;;;;23.07;100.00;101120.78;5273874;28;20096;-76
2023/06/19 07:05:38;;;;;;;7.53;6.82;;;;;;;23.16;100.00;101129.50;5269783;28;20742;-76
2023/06/19 07:08:09;;;;;;;7.97;7.28;;;;;;;23.21;100.00;101127.81;5275622;28;20024;-78
2023/06/19 07:10:40;;;;;;;8.38;7.35;;;;;;;23.36;100.00;101129.38;5273923;28;20043;-77
2023/06/19 07:13:11;;;;;;;8.77;7.25;;;;;;;23.35;100.00;101138.59;5273913;28;20028;-77
2023/06/19 07:15:43;;;;;;;8.32;7.00;;;;;;;23.56;100.00;101142.84;5268822;28;20094;-78
2023/06/19 07:18:14;;;;;;;9.15;7.13;;;;;;;23.48;100.00;101143.13;5266628;28;20031;-78
2023/06/19 07:20:45;;;;;;;9.18;7.53;;;;;;;23.75;100.00;101149.19;5266372;28;20078;-78
2023/06/19 07:23:17;;;;;;;8.27;6.82;;;;;;;23.85;100.00;101154.16;5269401;28;20128;-77
2023/06/19 07:25:48;;;;;;;7.72;6.93;;;;;;;23.78;100.00;101160.47;5269641;28;20032;-77
2023/06/19 07:28:19;;;;;;;7.47;6.43;;;;;;;23.89;100.00;101161.66;5265388;28;20056;-77
2023/06/19 07:30:52;;;;;;;9.43;7.00;;;;;;;23.93;100.00;101159.31;5266122;28;20158;-77
2023/06/19 07:33:23;;;;;;;8.32;6.50;;;;;;;23.79;100.00;101161.31;5269555;28;20028;-77
2023/06/19 07:35:54;;;;;;;8.65;6.95;;;;;;;23.87;100.00;101161.03;5262355;28;20099;-76
2023/06/19 07:38:26;;;;;;;8.15;6.60;;;;;;;24.13;100.00;101164.59;5265760;28;20028;-76
2023/06/19 07:40:57;;;;;;;8.07;6.93;;;;;;;24.07;100.00;101171.78;5271407;28;20636;-78
2023/06/19 07:43:29;;;;;;;6.97;6.30;;;;;;;24.07;100.00;101162.75;5267611;28;20087;-76
2023/06/19 07:46:00;;;;;;;7.00;6.05;;;;;;;24.21;100.00;101167.03;5274420;28;20088;-77
2023/06/19 07:48:31;;;;;;;9.25;6.28;;;;;;;24.13;100.00;101164.59;5268671;28;20376;-77
2023/06/19 07:51:02;;;;;;;6.45;5.78;;;;;;;24.36;100.00;101161.19;5268772;28;20024;-78
2023/06/19 07:53:34;;;;;;;7.13;5.97;;;;;;;24.20;100.00;101165.34;5267507;28;20042;-77
2023/06/19 07:56:05;;;;;;;8.20;7.07;;;;;;;24.16;100.00;101164.13;5267507;28;20038;-77
2023/06/19 07:58:36;;;;;;;9.45;5.75;;;;;;;24.37;100.00;101159.28;5263492;28;20032;-78
2023/06/19 08:01:08;;;;;;;8.80;5.15;;;;;;;24.71;100.00;101166.06;5266634;28;20024;-77
2023/06/19 08:03:39;;;;;;;8.20;5.97;;;;;;;25.07;100.00;101162.44;5269032;28;20032;-77
2023/06/19 08:06:10;;;;;;;6.53;5.40;;;;;;;25.32;100.00;101158.75;5267109;28;20573;-77
2023/06/19 08:08:42;;;;;;;6.65;5.45;;;;;;;25.62;100.00;101172.38;5276535;28;20146;-77
2023/06/19 08:11:13;;;;;;;6.40;5.60;;;;;;;25.89;100.00;101169.19;5273980;28;20043;-78
2023/06/19 08:13:44;;;;;;;5.95;5.30;;;;;;;26.25;100.00;101169.22;5270159;28;20309;-77
2023/06/19 08:16:15;;;;;;;9.32;4.93;;;;;;;26.32;100.00;101167.19;5275023;28;20526;-77
2023/06/19 08:18:47;;;;;;;6.65;4.70;;;;;;;26.47;100.00;101175.72;5269197;28;20105;-78
2023/06/19 08:21:20;;;;;;;8.25;6.25;;;;;;;26.45;100.00;101164.19;5272919;28;20060;-77
2023/06/19 08:23:52;;;;;;;7.75;6.03;;;;;;;26.63;100.00;101166.00;5272282;28;20036;-77
2023/06/19 08:26:23;;;;;;;6.00;4.97;;;;;;;26.72;100.00;101160.97;5272960;28;20047;-77
2023/06/19 08:28:54;;;;;;;5.85;5.25;;;;;;;26.76;100.00;101160.22;5270971;28;20032;-76
2023/06/19 08:31:27;;;;;;;5.93;5.22;;;;;;;26.74;100.00;101176.06;5269277;28;20169;-77
2023/06/19 08:33:58;;;;;;;6.15;5.28;;;;;;;26.70;100.00;101176.78;5269929;28;20136;-77
2023/06/19 08:36:30;;;;;;;7.30;5.63;;;;;;;26.38;100.00;101185.38;5269934;28;20501;-76
2023/06/19 08:39:02;;;;;;;6.30;5.70;;;;;;;26.37;100.00;101190.00;5271638;28;20047;-76
2023/06/19 08:41:38;;;;;;;7.82;5.45;;;;;;;26.20;100.00;101186.34;5260720;28;20101;-78
2023/06/19 08:44:10;;;;;;;6.93;5.35;;;;;;;26.01;100.00;101196.56;5267449;28;20123;-77
2023/06/19 08:46:41;;;;;;;8.40;5.15;;;;;;;26.00;100.00;101192.19;5270173;28;20043;-78
2023/06/19 08:49:13;;;;;;;7.35;6.25;;;;;;;26.25;100.00;101194.66;5268561;28;20067;-77
2023/06/19 08:51:44;;;;;;;9.35;5.93;;;;;;;26.25;100.00;101196.56;5267829;28;20039;-77
2023/06/19 08:54:16;;;;;;;8.05;5.10;;;;;;;26.87;100.00;101207.78;5267062;28;20057;-78
2023/06/19 08:56:47;;;;;;;8.38;5.65;;;;;;;27.20;100.00;101211.72;5276106;28;20037;-77
2023/06/19 08:59:19;;;;;;;8.00;5.30;;;;;;;27.48;100.00;101221.03;5278306;28;20626;-78
2023/06/19 09:01:53;;;;;;;7.55;5.80;;;;;;;27.85;100.00;101234.25;5266267;28;20024;-79
2023/06/19 09:04:26;;;;;;;11.75;5.50;;;;;;;28.09;100.00;101229.47;5269179;28;20491;-77
2023/06/19 09:07:02;;;;;;;5.88;5.38;;;;;;;28.52;100.00;101218.84;5268276;28;20036;-77
2023/06/19 09:09:34;;;;;;;8.10;5.55;;;;;;;28.33;100.00;101216.41;5264138;28;20458;-77
2023/06/19 09:12:10;;;;;;;6.97;6.28;;;;;;;28.43;100.00;101230.25;5268098;28;20036;-77
2023/06/19 09:14:43;;;;;;;7.18;5.70;;;;;;;28.13;100.00;101210.63;5265068;28;20102;-77
2023/06/19 09:17:20;;;;;;;6.68;5.40;;;;;;;28.60;100.00;101213.78;5271554;28;20024;-78
2023/06/19 09:19:53;;;;;;;8.25;4.97;;;;;;;29.02;100.00;101226.94;5271697;28;20110;-77
2023/06/19 09:22:25;;;;;;;6.18;5.50;;;;;;;28.93;100.00;101235.88;5269909;28;20481;-77
2023/06/19 09:25:00;;;;;;;6.75;5.55;;;;;;;29.43;100.00;101243.03;5274649;28;20119;-78
2023/06/19 09:27:32;;;;;;;;;;;;;;;30.13;100.00;101249.47;5269512;28;20066;-77
2023/06/19 09:30:05;;;;;;;25.80;7.40;;;;;;;29.47;100.00;101238.72;5268018;28;19915;-77
2023/06/19 09:32:36;;;;;;;15.25;6.53;;;;;;;29.51;100.00;101236.28;5275001;28;20308;-77
2023/06/19 09:35:08;;;;;;;8.17;5.33;;;;;;;29.66;100.00;101243.81;5265840;28;20036;-78
2023/06/19 09:37:42;;;;;;;6.88;5.43;;;;;;;29.78;100.00;101250.81;5273448;28;20374;-77
2023/06/19 09:40:14;;;;;;;9.35;4.78;;;;;;;30.15;100.00;101255.53;5276943;28;20032;-75
2023/06/19 09:42:47;;;;;;;8.95;5.88;;;;;;;30.13;100.00;101249.47;5274826;28;20045;-77
2023/06/19 09:45:23;;;;;;;10.57;5.78;;;;;;;30.39;100.00;101249.66;5278265;28;20064;-77
2023/06/19 09:47:54;;;;;;;10.38;6.20;;;;;;;30.56;100.00;101255.00;5281030;28;20111;-77
2023/06/19 09:50:27;;;;;;;9.43;6.35;;;;;;;30.64;100.00;101251.72;5278338;28;20176;-79
2023/06/19 09:52:58;;;;;;;10.15;6.43;;;;;;;30.63;100.00;101247.34;5275267;28;20039;-78
2023/06/19 09:55:31;;;;;;;7.63;6.80;;;;;;;30.34;100.00;101247.69;5269104;28;20568;-78
2023/06/19 09:58:05;;;;;;;6.30;5.70;;;;;;;30.75;100.00;101249.88;5272237;28;20031;-78
2023/06/19 10:00:37;;;;;;;11.82;6.65;;;;;;;30.35;100.00;101251.31;5274885;28;20037;-77
2023/06/19 10:03:12;;;;;;;10.13;5.88;;;;;;;30.21;100.00;101248.16;5278589;28;20139;-78
2023/06/19 10:05:44;;;;;;;5.65;5.05;;;;;;;30.33;98.24;101246.03;5274405;28;20241;-78
2023/06/19 10:08:26;;;;;;;7.10;5.40;;;;;;;30.47;97.53;101256.59;5275011;28;20055;-78
2023/06/19 10:10:58;;;;;;;7.47;5.55;;;;;;;30.21;94.26;101250.91;5267676;28;20038;-79
2023/06/19 10:13:34;;;;;;;7.90;5.40;;;;;;;30.24;95.46;101252.28;5274600;28;20030;-77
2023/06/19 10:16:07;;;;;;;10.80;5.45;;;;;;;30.64;94.53;101261.91;5271286;28;20416;-77
2023/06/19 10:18:47;;;;;;;8.23;5.93;;;;;;;30.43;95.07;101253.53;5265151;28;20024;-77
2023/06/19 10:21:21;;;;;;;6.75;4.90;;;;;;;30.32;94.10;101241.59;5269050;28;20039;-76
2023/06/19 10:23:55;;;;;;;9.43;5.13;;;;;;;30.45;93.32;101251.38;5271092;28;20028;-77
2023/06/19 10:26:34;;;;;;;8.45;5.82;;;;;;;30.38;93.36;101252.69;5277468;28;20035;-77
2023/06/19 10:29:17;;;;;;;10.13;5.60;;;;;;;30.33;93.37;101258.94;5275609;28;20032;-76
2023/06/19 10:31:49;;;;;;;7.65;5.68;;;;;;;30.05;91.67;101254.63;5284753;28;20028;-77
2023/06/19 10:34:21;;;;;;;7.93;6.22;;;;;;;30.39;91.25;101252.41;5269560;28;20412;-76
2023/06/19 10:36:55;;;;;;;8.68;6.03;;;;;;;30.59;91.65;101259.94;5264732;28;20020;-76
2023/06/19 10:39:26;;;;;;;6.57;5.97;;;;;;;30.66;91.79;101254.22;5269519;28;20036;-76
2023/06/19 10:41:58;;;;;;;8.90;5.93;;;;;;;30.36;92.29;101247.44;5271745;28;20027;-75
2023/06/19 10:44:30;;;;;;;6.20;5.57;;;;;;;30.08;94.04;101249.41;5266694;28;20322;-76
2023/06/19 10:47:01;;;;;;;6.00;4.85;;;;;;;29.84;88.85;101259.13;5268555;28;20030;-76
2023/06/19 10:49:33;;;;;;;6.70;5.90;;;;;;;29.71;90.23;101261.19;5270394;28;20746;-76
2023/06/19 10:52:05;;;;;;;7.70;6.70;;;;;;;29.51;92.56;101267.31;5269737;28;20036;-75
2023/06/19 10:54:36;;;;;;;7.18;6.00;;;;;;;29.44;94.75;101252.97;5267925;28;20024;-75
2023/06/19 10:57:07;;;;;;;8.70;6.60;;;;;;;29.39;94.10;101245.47;5268013;28;20094;-76
2023/06/19 10:59:39;;;;;;;10.10;6.00;;;;;;;29.45;96.29;101243.59;5264237;28;20453;-76
2023/06/19 11:02:11;;;;;;;6.53;5.85;;;;;;;29.17;96.03;101242.78;5268225;28;20071;-76
2023/06/19 11:04:42;;;;;;;9.85;6.15;;;;;;;29.20;96.94;101236.75;5266134;28;20032;-76
2023/06/19 11:07:14;;;;;;;8.52;5.78;;;;;;;29.49;96.78;101243.91;5267217;28;20028;-75
2023/06/19 11:09:45;;;;;;;7.55;6.38;;;;;;;29.48;93.91;101242.28;5266452;28;20114;-75
2023/06/19 11:12:20;;;;;;;11.77;6.05;;;;;;;29.68;93.90;101242.47;5268224;28;20029;-75
2023/06/19 11:14:52;;;;;;;12.63;6.60;;;;;;;29.95;94.15;101236.94;5264459;28;20034;-76
2023/06/19 11:17:23;;;;;;;9.80;5.90;;;;;;;30.41;92.95;101233.72;5263989;28;20020;-76
2023/06/19 11:19:58;;;;;;;6.25;5.65;;;;;;;30.79;92.87;101234.47;5266535;28;20331;-76
2023/06/19 11:22:40;;;;;;;7.87;6.40;;;;;;;31.51;90.49;101234.72;5268382;28;20479;-75
2023/06/19 11:25:11;;;;;;;8.55;6.38;;;;;;;31.50;83.68;101235.81;5268063;28;20301;-76
2023/06/19 11:27:46;;;;;;;8.40;6.93;;;;;;;31.87;82.08;101243.00;5267648;28;20089;-76
2023/06/19 11:30:20;;;;;;;7.32;6.40;;;;;;;32.35;81.20;101232.50;5271655;28;20799;-77
2023/06/19 11:32:52;;;;;;;8.25;6.53;;;;;;;32.37;77.85;101233.03;5276760;28;20139;-77
2023/06/19 11:35:23;;;;;;;8.27;5.85;;;;;;;32.86;79.27;101241.75;5268819;28;20453;-77
2023/06/19 11:37:54;;;;;;;10.93;6.35;;;;;;;32.64;78.93;101240.16;5276425;28;20028;-76